Página principal
METAR-TAF:

METAR-TAF

Aeroportos :

Sitka, Alasca, Estados Unidos

latitude: 57-02-53N, longitude: 135-21-53W, altura: 6 m

Observação actual do tempo

O boletim foi feito há 1 hora e 7 minutos, às 07:53 UTC
Vento 4 kt de este
Temperatura 8°C
Humidade 49%
Pressão 1027 hPa
Visibilidade: 16.1 km
Céu limpo

METAR: PASI 190753Z 08004KT 10SM CLR 08/M02 A3033 RMK AO2 SLP270 T00781022

Hora: 01:00 (09:00 UTC)

Previsão

O boletim foi feito há 3 horas e 26 minutos, às 05:34 UTC
Previsão válida de 19 às 06 UTC a 20 às 06 UTC
Vento 9 kt de este
Visibilidade: 10 km
Céu limpo
A partir de 19 às 2100 UTC
Vento 6 kt de su-sudeste
Visibilidade: 10 km
Céu limpo

TAF: PASI 190534Z 1906/2006 10009KT P6SM SKC FM192100 15006KT P6SM SKC

Observações e previsões do tempo de mais de 4000 aeroportos (mensagens METAR e TAF).

As estações disponíveis são os pontos amarelos e vermelhos sobre o mapa.

Mova o rato sobre o mapa para ver o nome da estação.

Depois clique no ponto para visualizar as observações e previsões meteorológicas.

Para alterar o mapa : clique nos botões verdes com uma cruz preta para aumentar o zoom; no botão verde com uma pitada de zoom; ou nas setas verdes para mapas adjacentes.


METAR-TAF: